Página principal
METAR-TAF:

METAR-TAF

Aeroportos :

Aeroporto Internacional Aristides Pereira

Ilha da Boa Vista, Cabo Verde

latitude: 16-08-15N, longitude: 22-53-22W, altura: 21 m

Observação actual do tempo

O boletim foi feito há 45 minutos, às 15:00 UTC
Vento 12 kt de nor-nordeste
Temperatura 26°C
Humidade 48%
Pressão 1014 hPa
Visibilidade 10 km ou mais
Nuvens dispersasa uma altura de 1400 ft
Nuvens dispersasa uma altura de 20000 ft

METAR: GVBA 051500Z 03012KT 9999 SCT014 SCT200 26/14 Q1014 NOSIG

Hora: 14:45 (15:45 UTC)

Previsão

O boletim foi feito há 4 horas e 45 minutos, às 11:00 UTC
Previsão válida de 05 às 12 UTC a 06 às 18 UTC
Vento 8 kt de es-nordeste
Visibilidade 10 km ou mais
Nuvens fragmentadasa uma altura de 1600 ft

TAF: GVBA 051100Z 0512/0618 06008KT 9999 BKN016

Observações e previsões do tempo de mais de 4000 aeroportos (mensagens METAR e TAF).

As estações disponíveis são os pontos amarelos e vermelhos sobre o mapa.

Mova o rato sobre o mapa para ver o nome da estação.

Depois clique no ponto para visualizar as observações e previsões meteorológicas.

Para alterar o mapa : clique nos botões verdes com uma cruz preta para aumentar o zoom; no botão verde com uma pitada de zoom; ou nas setas verdes para mapas adjacentes.


METAR-TAF: